Albert Oldendorff — CQLO — position and weather

sailwx.info

Track history (hours):
 
Tides and Currents Weather Stations Pressure Air Temp Water Temp Dewpoint Dewpoint Depression Visibility Wind Speed Wind Dir Waves Ship Positions

Albert Oldendorff

Last reported at 2014-Jul-29 01:08 UTC. Time now 2014-Jul-31 21:50 UTC.
Position N 32°18' E 119°43'.

Length 171 m; draft 8.8 m.

Type: Cargo ship. MMSI: 255805260.

Date/timePositionNaut miles runAvg speedWind from/ knotsBaromVisibWave heightAir tempDewpointWater temp
2014-Jul-29 01:08N 32°18' E 119°43'0 0.0
2014-Jul-28 18:17N 32°18' E 119°43'0 0.0
2014-Jul-27 22:31N 32°18' E 119°43'0 0.0
2014-Jul-27 15:19N 32°18' E 119°43'0 0.0
2014-Jul-27 13:22N 32°18' E 119°43'0 0.0
2014-Jul-27 00:24N 32°18' E 119°43'0 0.0
2014-Jul-26 23:27N 32°18' E 119°43'0 0.0
2014-Jul-26 20:06N 32°18' E 119°43'10 0.7
2014-Jul-26 05:05N 32°13' E 119°54'3 4.0
2014-Jul-26 04:24N 32°10' E 119°54'0 0.0
2014-Jul-26 03:33N 32°10' E 119°54'0 0.0
2014-Jul-25 22:13N 32°10' E 119°54'0 0.0
2014-Jul-25 20:20N 32°10' E 119°54'0 0.0
2014-Jul-25 18:33N 32°10' E 119°54'0 0.0
2014-Jul-25 13:04N 32°10' E 119°54'0 0.1
2014-Jul-25 12:33N 32°10' E 119°54'0 0.0
2014-Jul-25 01:28N 32°10' E 119°54'0 0.0
2014-Jul-24 21:26N 32°10' E 119°54'0 0.0
2014-Jul-24 20:23N 32°10' E 119°54'0 0.0
2014-Jul-24 18:29N 32°10' E 119°54'0 0.0
2014-Jul-24 17:23N 32°10' E 119°54'0 0.0
2014-Jul-24 16:05N 32°10' E 119°54'0 0.0
2014-Jul-24 15:23N 32°10' E 119°54'0 0.0
2014-Jul-24 14:23N 32°10' E 119°54'0 0.0
2014-Jul-24 13:29N 32°10' E 119°54'0 0.0
2014-Jul-24 12:32N 32°10' E 119°54'0 0.0
2014-Jul-24 11:29N 32°10' E 119°54'0 0.0
2014-Jul-24 10:14N 32°10' E 119°54'0 0.0
2014-Jul-24 09:33N 32°10' E 119°54'0 0.0
2014-Jul-24 08:33N 32°10' E 119°54'0 0.0
2014-Jul-24 07:32N 32°10' E 119°54'0 0.0
2014-Jul-24 06:33N 32°10' E 119°54'2 1.5
2014-Jul-24 05:21N 32°12' E 119°54'8 9.6
2014-Jul-24 04:33N 32°05' E 119°56'9 9.0
2014-Jul-24 03:34N 31°58' E 120°02'8 7.6
2014-Jul-24 02:33N 31°56' E 120°11'9 8.6
2014-Jul-24 01:34N 31°59' E 120°21'7 6.7
2014-Jul-24 00:33N 32°03' E 120°27'7 7.5
2014-Jul-23 23:33N 32°02' E 120°35'7 7.1
2014-Jul-23 22:33N 32°00' E 120°43'7 7.3
2014-Jul-23 21:33N 31°58' E 120°51'9 9.5
2014-Jul-23 20:33N 31°49' E 120°55'8 8.0
2014-Jul-23 19:33N 31°46' E 121°04'9 9.0
2014-Jul-23 18:30N 31°40' E 121°13'9 9.7
2014-Jul-23 17:33N 31°33' E 121°20'1110.4
2014-Jul-23 16:33N 31°26' E 121°29'8 8.4
2014-Jul-23 15:33N 31°22' E 121°38'10 9.6
2014-Jul-23 14:32N 31°18' E 121°48'2511.0
2014-Jul-23 12:14N 31°08' E 122°15'811.3
2014-Jul-23 11:29N 31°06' E 122°25'  
Track history (hours):
 
Tides and Currents Weather Stations Pressure Air Temp Water Temp Dewpoint Dewpoint Depression Visibility Wind Speed Wind Dir Waves Ship Positions

Albert Oldendorff

Last reported at 2014-Jul-29 01:08 UTC. Time now 2014-Jul-31 21:50 UTC.
Position N 32°18' E 119°43'.

Length 171 m; draft 8.8 m.

Type: Cargo ship. MMSI: 255805260.

Date/timePositionNaut miles runAvg speedWind from/ knotsBaromVisibWave heightAir tempDewpointWater temp
2014-Jul-29 01:08N 32°18' E 119°43'0 0.0
2014-Jul-28 18:17N 32°18' E 119°43'0 0.0
2014-Jul-27 22:31N 32°18' E 119°43'0 0.0
2014-Jul-27 15:19N 32°18' E 119°43'0 0.0
2014-Jul-27 13:22N 32°18' E 119°43'0 0.0
2014-Jul-27 00:24N 32°18' E 119°43'0 0.0
2014-Jul-26 23:27N 32°18' E 119°43'0 0.0
2014-Jul-26 20:06N 32°18' E 119°43'10 0.7
2014-Jul-26 05:05N 32°13' E 119°54'3 4.0
2014-Jul-26 04:24N 32°10' E 119°54'0 0.0
2014-Jul-26 03:33N 32°10' E 119°54'0 0.0
2014-Jul-25 22:13N 32°10' E 119°54'0 0.0
2014-Jul-25 20:20N 32°10' E 119°54'0 0.0
2014-Jul-25 18:33N 32°10' E 119°54'0 0.0
2014-Jul-25 13:04N 32°10' E 119°54'0 0.1
2014-Jul-25 12:33N 32°10' E 119°54'0 0.0
2014-Jul-25 01:28N 32°10' E 119°54'0 0.0
2014-Jul-24 21:26N 32°10' E 119°54'0 0.0
2014-Jul-24 20:23N 32°10' E 119°54'0 0.0
2014-Jul-24 18:29N 32°10' E 119°54'0 0.0
2014-Jul-24 17:23N 32°10' E 119°54'0 0.0
2014-Jul-24 16:05N 32°10' E 119°54'0 0.0
2014-Jul-24 15:23N 32°10' E 119°54'0 0.0
2014-Jul-24 14:23N 32°10' E 119°54'0 0.0
2014-Jul-24 13:29N 32°10' E 119°54'0 0.0
2014-Jul-24 12:32N 32°10' E 119°54'0 0.0
2014-Jul-24 11:29N 32°10' E 119°54'0 0.0
2014-Jul-24 10:14N 32°10' E 119°54'0 0.0
2014-Jul-24 09:33N 32°10' E 119°54'0 0.0
2014-Jul-24 08:33N 32°10' E 119°54'0 0.0
2014-Jul-24 07:32N 32°10' E 119°54'0 0.0
2014-Jul-24 06:33N 32°10' E 119°54'2 1.5
2014-Jul-24 05:21N 32°12' E 119°54'8 9.6
2014-Jul-24 04:33N 32°05' E 119°56'9 9.0
2014-Jul-24 03:34N 31°58' E 120°02'8 7.6
2014-Jul-24 02:33N 31°56' E 120°11'9 8.6
2014-Jul-24 01:34N 31°59' E 120°21'7 6.7
2014-Jul-24 00:33N 32°03' E 120°27'7 7.5
2014-Jul-23 23:33N 32°02' E 120°35'7 7.1
2014-Jul-23 22:33N 32°00' E 120°43'7 7.3
2014-Jul-23 21:33N 31°58' E 120°51'9 9.5
2014-Jul-23 20:33N 31°49' E 120°55'8 8.0
2014-Jul-23 19:33N 31°46' E 121°04'9 9.0
2014-Jul-23 18:30N 31°40' E 121°13'9 9.7
2014-Jul-23 17:33N 31°33' E 121°20'1110.4
2014-Jul-23 16:33N 31°26' E 121°29'8 8.4
2014-Jul-23 15:33N 31°22' E 121°38'10 9.6
2014-Jul-23 14:32N 31°18' E 121°48'2511.0
2014-Jul-23 12:14N 31°08' E 122°15'811.3
2014-Jul-23 11:29N 31°06' E 122°25'  

Dump ship's entire track history